createdAt,value
2023-03-12T00:18:06.012Z,97.4
2023-03-12T00:37:25.433Z,93.6
2023-03-12T00:56:44.232Z,94.5
2023-03-12T01:16:03.521Z,96.5
2023-03-12T01:35:23.480Z,95.5
2023-03-12T01:54:41.505Z,96.5
2023-03-12T02:14:00.011Z,90.2
2023-03-12T02:33:19.170Z,87.9
2023-03-12T02:52:38.267Z,83.9
2023-03-12T03:11:58.479Z,84.9
2023-03-12T03:31:14.738Z,82.4
2023-03-12T03:50:34.871Z,82.7
2023-03-12T04:09:53.518Z,82.8
2023-03-12T04:29:13.259Z,80.1
2023-03-12T04:48:33.238Z,78.8
2023-03-12T05:07:52.031Z,77.2
2023-03-12T05:27:11.992Z,78.5
2023-03-12T05:46:31.456Z,76.7
2023-03-12T06:05:50.149Z,81.6
2023-03-12T06:25:09.600Z,88.5
2023-03-12T06:44:28.334Z,96.1
2023-03-12T07:03:46.710Z,100
2023-03-12T07:23:06.599Z,100
2023-03-12T07:42:26.615Z,100
2023-03-12T08:01:47.546Z,100
2023-03-12T08:21:04.916Z,100
2023-03-12T08:40:24.745Z,100
2023-03-12T08:59:42.858Z,100
2023-03-12T09:19:02.254Z,100
2023-03-12T09:38:21.788Z,100
2023-03-12T09:57:43.312Z,100
2023-03-12T10:17:03.818Z,100
2023-03-12T10:36:23.628Z,100
2023-03-12T10:55:45.091Z,100
2023-03-12T11:15:05.826Z,100
2023-03-12T11:34:26.513Z,100
2023-03-12T11:53:49.115Z,100
2023-03-12T12:13:10.609Z,100
2023-03-12T12:32:42.923Z,100
2023-03-12T12:51:53.992Z,100
2023-03-12T13:11:20.975Z,100
2023-03-12T13:30:37.550Z,100
2023-03-12T13:49:59.618Z,100
2023-03-12T14:09:22.093Z,100
2023-03-12T14:28:43.321Z,100
2023-03-12T14:48:03.953Z,100
2023-03-12T15:07:24.994Z,100
2023-03-12T15:26:47.066Z,100
2023-03-12T15:46:05.813Z,100
2023-03-12T16:05:24.539Z,100
2023-03-12T16:24:42.982Z,100
2023-03-12T16:44:03.572Z,100
2023-03-12T17:03:23.049Z,100
2023-03-12T17:22:44.594Z,91.7
2023-03-12T17:42:04.237Z,90.9
2023-03-12T18:01:22.879Z,89.6
2023-03-12T18:20:41.365Z,95.4
2023-03-12T18:39:59.400Z,96.7
2023-03-12T18:59:19.273Z,97.1
2023-03-12T19:18:38.611Z,98.2
2023-03-12T19:37:58.618Z,95.8
2023-03-12T19:57:18.016Z,95
2023-03-12T20:16:38.549Z,93.2
2023-03-12T20:35:57.550Z,92.2
2023-03-12T20:55:16.667Z,91.1
2023-03-12T21:14:34.499Z,91.2
2023-03-12T21:48:32.292Z,90.1
2023-03-12T22:07:48.829Z,90.6
2023-03-12T22:27:06.303Z,93.7
2023-03-12T22:46:23.120Z,94.1
2023-03-12T23:05:42.359Z,95.8
2023-03-12T23:25:04.990Z,93.6
2023-03-12T23:44:23.875Z,95.8
